Portland, Oregon
Traffic Map
Current Weather Conditions
Portland, Oregon
Scattered Clouds
Scattered Clouds
15°
Feels Like: 15°
Wind Chill: 15° Ceiling: Unl
Heat Index: 15° Visibility: 10mi
Dew Point: 13° Wind: 6mph
Humidity: 90% Direction: 320° (NW)
Pressure: 29.96in Gusts: 0mph
Raw Report DataKPDX 021353Z 32005KT 10SM SCT013 SCT200 15/13 A2996 RMK AO2 SLP142 T01500133 $
Traffic Incident Summary
Active as of:
Severity:
Category:
InformationThere was an issue retrieving the traffic information for this location. Please try a different location or try again shortly.
Advertisements
Track Severe Weather on mobile